createdAt,value
2018-08-12T00:00:52.625Z,86.70
2018-08-12T00:01:52.491Z,86.32
2018-08-12T00:02:52.644Z,86.32
2018-08-12T00:03:52.442Z,85.75
2018-08-12T00:04:52.557Z,86.13
2018-08-12T00:05:52.398Z,86.13
2018-08-12T00:06:52.569Z,86.22
2018-08-12T00:07:52.351Z,85.84
2018-08-12T00:08:52.481Z,86.32
2018-08-12T00:09:52.308Z,86.04
2018-08-12T00:10:52.507Z,85.65
2018-08-12T00:11:52.264Z,86.04
2018-08-12T00:12:52.405Z,85.84
2018-08-12T00:13:52.215Z,86.80
2018-08-12T00:14:52.316Z,86.22
2018-08-12T00:15:52.170Z,86.61
2018-08-12T00:16:52.333Z,86.41
2018-08-12T00:17:52.129Z,86.90
2018-08-12T00:18:52.243Z,86.85
2018-08-12T00:19:52.077Z,87.04
2018-08-12T00:20:52.256Z,87.18
2018-08-12T00:21:52.039Z,86.94
2018-08-12T00:22:52.168Z,87.14
2018-08-12T00:23:51.986Z,87.62
2018-08-12T00:24:52.080Z,87.04
2018-08-12T00:25:51.946Z,86.94
2018-08-12T00:26:51.992Z,87.52
2018-08-12T00:27:51.895Z,86.94
2018-08-12T00:28:52.005Z,87.33
2018-08-12T00:29:51.843Z,87.62
2018-08-12T00:30:51.918Z,87.43
2018-08-12T00:31:51.808Z,87.62
2018-08-12T00:32:51.828Z,87.43
2018-08-12T00:33:51.765Z,86.94
2018-08-12T00:34:51.843Z,87.62
2018-08-12T00:35:51.712Z,87.62
2018-08-12T00:36:51.755Z,87.52
2018-08-12T00:37:51.667Z,87.52
2018-08-12T00:38:51.768Z,87.71
2018-08-12T00:39:51.616Z,87.52
2018-08-12T00:40:51.683Z,86.94
2018-08-12T00:41:51.580Z,86.94
2018-08-12T00:42:51.592Z,86.76
2018-08-12T00:43:51.529Z,87.52
2018-08-12T00:44:51.606Z,88.00
2018-08-12T00:45:51.498Z,87.52
2018-08-12T00:46:51.517Z,87.23
2018-08-12T00:47:51.454Z,88.00
2018-08-12T00:48:51.532Z,87.23
2018-08-12T00:49:51.397Z,87.52
2018-08-12T00:50:51.444Z,87.23
2018-08-12T00:51:51.352Z,87.52
2018-08-12T00:52:51.458Z,87.14
2018-08-12T00:53:51.298Z,86.85
2018-08-12T00:54:51.373Z,87.52
2018-08-12T00:55:51.269Z,87.62
2018-08-12T00:56:51.282Z,88.09
2018-08-12T00:57:51.215Z,87.76
2018-08-12T00:58:51.296Z,88.19
2018-08-12T00:59:51.164Z,88.05
2018-08-12T01:00:51.209Z,88.24
2018-08-12T01:01:51.113Z,87.95
2018-08-12T01:02:51.227Z,88.09
2018-08-12T01:03:51.068Z,87.95
2018-08-12T01:04:51.136Z,88.81
2018-08-12T01:05:51.023Z,88.15
2018-08-12T01:06:51.148Z,88.72
2018-08-12T01:07:50.975Z,88.15
2018-08-12T01:08:51.060Z,88.24
2018-08-12T01:09:50.930Z,88.81
2018-08-12T01:10:50.976Z,88.24
2018-08-12T01:11:50.886Z,89.29
2018-08-12T01:12:50.989Z,89.10
2018-08-12T01:13:50.836Z,89.01
2018-08-12T01:14:50.899Z,89.29
2018-08-12T01:15:50.790Z,89.10
2018-08-12T01:16:50.911Z,89.29
2018-08-12T01:17:50.744Z,89.29
2018-08-12T01:18:50.825Z,89.48
2018-08-12T01:19:50.697Z,89.29
2018-08-12T01:20:50.842Z,89.20
2018-08-12T01:21:50.653Z,88.81
2018-08-12T01:22:50.753Z,89.29
2018-08-12T01:23:50.615Z,89.39
2018-08-12T01:24:50.777Z,89.10
2018-08-12T01:25:50.564Z,89.58
2018-08-12T01:26:50.677Z,88.91
2018-08-12T01:27:50.515Z,88.91
2018-08-12T01:28:50.588Z,89.29
2018-08-12T01:29:50.471Z,89.29
2018-08-12T01:30:50.602Z,89.10
2018-08-12T01:31:50.420Z,89.10
2018-08-12T01:32:50.515Z,88.91
2018-08-12T01:33:50.376Z,89.01
2018-08-12T01:34:50.527Z,89.67
2018-08-12T01:35:50.335Z,89.20
2018-08-12T01:36:50.442Z,89.67
2018-08-12T01:37:50.282Z,89.87
2018-08-12T01:38:50.351Z,89.39
2018-08-12T01:39:50.233Z,88.91
2018-08-12T01:40:50.370Z,89.29
2018-08-12T01:41:50.185Z,89.01
2018-08-12T01:42:50.281Z,89.77
2018-08-12T01:43:50.142Z,89.29
2018-08-12T01:44:50.295Z,88.62
2018-08-12T01:45:50.098Z,89.01
2018-08-12T01:46:50.208Z,89.01
2018-08-12T01:47:50.057Z,89.48
2018-08-12T01:48:50.226Z,89.96
2018-08-12T01:49:50.002Z,89.77
2018-08-12T01:50:50.137Z,89.87
2018-08-12T01:51:49.952Z,89.48
2018-08-12T01:52:50.043Z,89.67
2018-08-12T01:53:49.909Z,89.67
2018-08-12T01:54:50.066Z,89.58
2018-08-12T01:55:49.864Z,89.29
2018-08-12T01:56:49.968Z,89.20
2018-08-12T01:57:49.816Z,89.29
2018-08-12T01:58:49.987Z,89.53
2018-08-12T01:59:49.770Z,90.01
2018-08-12T02:00:49.896Z,89.73
2018-08-12T02:01:49.722Z,89.87
2018-08-12T02:02:49.808Z,89.92
2018-08-12T02:03:49.684Z,89.48
2018-08-12T02:04:49.821Z,89.39
2018-08-12T02:05:49.633Z,89.53
2018-08-12T02:06:49.733Z,89.34
2018-08-12T02:07:49.586Z,89.53
2018-08-12T02:08:49.747Z,89.87
2018-08-12T02:09:49.533Z,89.58
2018-08-12T02:10:49.663Z,89.53
2018-08-12T02:11:49.489Z,89.29
2018-08-12T02:12:49.673Z,89.48
2018-08-12T02:13:49.443Z,89.44
2018-08-12T02:14:49.585Z,89.44
2018-08-12T02:15:49.393Z,89.53
2018-08-12T02:16:49.501Z,89.25
2018-08-12T02:17:49.350Z,89.06
2018-08-12T02:18:49.509Z,89.06
2018-08-12T02:19:49.302Z,89.25
2018-08-12T02:20:49.323Z,90.01
2018-08-12T02:21:49.253Z,89.92
2018-08-12T02:22:49.335Z,90.39
2018-08-12T02:23:49.210Z,90.01
2018-08-12T02:24:49.255Z,90.01
2018-08-12T02:25:49.160Z,90.49
2018-08-12T02:26:49.262Z,90.49
2018-08-12T02:27:49.118Z,90.30
2018-08-12T02:28:49.170Z,90.49
2018-08-12T02:29:49.069Z,90.59
2018-08-12T02:30:49.085Z,90.59
2018-08-12T02:31:49.019Z,90.78
2018-08-12T02:32:49.100Z,90.68
2018-08-12T02:33:48.975Z,90.59
2018-08-12T02:34:49.016Z,90.78
2018-08-12T02:35:48.928Z,90.49
2018-08-12T02:36:49.025Z,90.59
2018-08-12T02:37:48.880Z,90.59
2018-08-12T02:38:48.937Z,90.97
2018-08-12T02:39:48.830Z,90.88
2018-08-12T02:40:48.847Z,91.06
2018-08-12T02:41:48.788Z,90.59
2018-08-12T02:42:48.860Z,90.68
2018-08-12T02:43:48.739Z,90.68
2018-08-12T02:44:48.775Z,90.59
2018-08-12T02:45:48.695Z,90.78
2018-08-12T02:46:48.791Z,90.59
2018-08-12T02:47:48.647Z,90.68
2018-08-12T02:48:48.704Z,90.59
2018-08-12T02:49:48.596Z,90.68
2018-08-12T02:50:48.721Z,89.82
2018-08-12T02:51:48.554Z,90.59
2018-08-12T02:52:48.627Z,90.30
2018-08-12T02:53:48.506Z,90.30
2018-08-12T02:54:48.540Z,90.11
2018-08-12T02:55:48.456Z,90.20
2018-08-12T02:56:48.549Z,90.59
2018-08-12T02:57:48.410Z,90.01
2018-08-12T02:58:48.464Z,90.30
2018-08-12T02:59:48.362Z,90.20
2018-08-12T03:00:48.480Z,89.92
2018-08-12T03:01:48.315Z,89.73
2018-08-12T03:02:48.390Z,89.44
2018-08-12T03:03:48.268Z,89.15
2018-08-12T03:04:48.303Z,89.25
2018-08-12T03:05:48.221Z,89.53
2018-08-12T03:06:48.317Z,89.53
2018-08-12T03:07:48.173Z,89.53
2018-08-12T03:08:48.228Z,89.25
2018-08-12T03:09:48.128Z,89.44
2018-08-12T03:10:48.246Z,89.73
2018-08-12T03:11:48.083Z,89.53
2018-08-12T03:12:48.156Z,89.44
2018-08-12T03:13:48.032Z,89.44
2018-08-12T03:14:48.171Z,89.53
2018-08-12T03:15:47.984Z,89.73
2018-08-12T03:16:48.085Z,90.59
2018-08-12T03:17:47.946Z,89.73
2018-08-12T03:18:47.993Z,89.92
2018-08-12T03:19:47.892Z,89.63
2018-08-12T03:20:48.010Z,89.44
2018-08-12T03:21:47.846Z,89.53
2018-08-12T03:22:47.920Z,89.73
2018-08-12T03:23:47.795Z,89.73
2018-08-12T03:24:47.934Z,90.39
2018-08-12T03:25:47.749Z,90.20
2018-08-12T03:26:47.849Z,89.92
2018-08-12T03:27:47.701Z,89.82
2018-08-12T03:28:47.757Z,89.39
2018-08-12T03:29:47.654Z,89.53
2018-08-12T03:30:47.772Z,89.63
2018-08-12T03:31:47.614Z,89.34
2018-08-12T03:32:47.681Z,90.01
2018-08-12T03:33:47.566Z,89.59
2018-08-12T03:34:47.713Z,90.01
2018-08-12T03:35:47.511Z,89.59
2018-08-12T03:36:47.609Z,89.49
2018-08-12T03:37:47.467Z,89.39
2018-08-12T03:38:47.621Z,89.53
2018-08-12T03:39:47.416Z,89.59
2018-08-12T03:40:47.534Z,89.44
2018-08-12T03:41:47.414Z,89.20
2018-08-12T03:42:47.446Z,89.49
2018-08-12T03:43:47.321Z,89.53
2018-08-12T03:44:47.461Z,89.44
2018-08-12T03:45:47.274Z,89.34
2018-08-12T03:46:47.371Z,89.63
2018-08-12T03:47:47.228Z,89.01
2018-08-12T03:48:47.392Z,89.15
2018-08-12T03:49:47.226Z,89.39
2018-08-12T03:50:47.298Z,89.01
2018-08-12T03:51:47.134Z,89.20
2018-08-12T03:52:47.208Z,89.01
2018-08-12T03:53:47.086Z,88.96
2018-08-12T03:54:47.224Z,89.34
2018-08-12T03:55:47.037Z,88.58
2018-08-12T03:56:47.136Z,88.15
2018-08-12T03:57:47.000Z,88.06
2018-08-12T03:58:47.150Z,88.34
2018-08-12T03:59:46.942Z,87.87
2018-08-12T04:00:47.060Z,88.06
2018-08-12T04:01:46.897Z,88.15
2018-08-12T04:02:47.075Z,88.15
2018-08-12T04:03:46.848Z,88.68
2018-08-12T04:04:46.987Z,88.34
2018-08-12T04:05:46.802Z,88.54
2018-08-12T04:06:46.900Z,88.68
2018-08-12T04:07:46.757Z,87.82
2018-08-12T04:08:46.917Z,88.15
2018-08-12T04:09:46.705Z,87.87
2018-08-12T04:10:46.825Z,87.58
2018-08-12T04:11:46.657Z,87.91
2018-08-12T04:12:46.843Z,88.06
2018-08-12T04:13:46.620Z,88.15
2018-08-12T04:14:46.752Z,87.10
2018-08-12T04:15:46.563Z,87.39
2018-08-12T04:16:46.662Z,87.39
2018-08-12T04:17:46.517Z,87.29
2018-08-12T04:18:46.575Z,87.01
2018-08-12T04:19:46.469Z,86.82
2018-08-12T04:20:46.487Z,86.63
2018-08-12T04:21:46.436Z,86.76
2018-08-12T04:22:46.503Z,86.76
2018-08-12T04:23:46.375Z,87.58
2018-08-12T04:24:46.402Z,87.01
2018-08-12T04:25:46.325Z,86.86
2018-08-12T04:26:46.426Z,87.20
2018-08-12T04:27:46.277Z,86.91
2018-08-12T04:28:46.338Z,87.20
2018-08-12T04:29:46.232Z,86.96
2018-08-12T04:30:46.253Z,87.53
2018-08-12T04:31:46.182Z,87.48
2018-08-12T04:32:46.266Z,87.34
2018-08-12T04:33:46.138Z,87.24
2018-08-12T04:34:46.177Z,87.72
2018-08-12T04:35:46.086Z,87.43
2018-08-12T04:36:46.193Z,86.82
2018-08-12T04:37:46.040Z,86.76
2018-08-12T04:38:46.102Z,87.05
2018-08-12T04:39:45.992Z,87.24
2018-08-12T04:40:46.022Z,86.67
2018-08-12T04:41:45.947Z,86.57
2018-08-12T04:42:46.030Z,86.38
2018-08-12T04:43:45.900Z,86.67
2018-08-12T04:44:45.941Z,86.57
2018-08-12T04:45:45.849Z,87.15
2018-08-12T04:46:45.955Z,86.57
2018-08-12T04:47:45.800Z,86.67
2018-08-12T04:48:45.866Z,86.67
2018-08-12T04:49:45.757Z,86.47
2018-08-12T04:50:45.775Z,86.47
2018-08-12T04:51:45.709Z,86.29
2018-08-12T04:52:45.798Z,86.57
2018-08-12T04:53:45.661Z,86.19
2018-08-12T04:54:45.703Z,86.29
2018-08-12T04:55:45.611Z,86.00
2018-08-12T04:56:45.716Z,86.19
2018-08-12T04:57:45.564Z,85.85
2018-08-12T04:58:45.630Z,85.71
2018-08-12T04:59:45.515Z,84.99
2018-08-12T05:00:45.644Z,84.89
2018-08-12T05:01:45.475Z,85.05
2018-08-12T05:02:45.557Z,83.99
2018-08-12T05:03:45.422Z,83.99
2018-08-12T05:04:45.469Z,84.80
2018-08-12T05:05:45.390Z,84.76
2018-08-12T05:06:45.483Z,84.52
2018-08-12T05:07:45.326Z,84.99
2018-08-12T05:08:45.393Z,83.75
2018-08-12T05:09:45.281Z,83.56
2018-08-12T05:10:45.407Z,83.08
2018-08-12T05:11:45.233Z,83.94
2018-08-12T05:12:45.320Z,84.03
2018-08-12T05:13:45.187Z,84.23
2018-08-12T05:14:45.230Z,84.32
2018-08-12T05:15:45.139Z,84.32
2018-08-12T05:16:45.247Z,84.13
2018-08-12T05:17:45.093Z,84.42
2018-08-12T05:18:45.161Z,84.70
2018-08-12T05:19:45.047Z,84.99
2018-08-12T05:20:45.170Z,85.47
2018-08-12T05:21:44.995Z,85.94
2018-08-12T05:22:45.082Z,85.75
2018-08-12T05:23:44.949Z,85.75
2018-08-12T05:24:45.100Z,85.28
2018-08-12T05:25:44.897Z,85.28
2018-08-12T05:26:45.013Z,85.75
2018-08-12T05:27:44.859Z,85.38
2018-08-12T05:28:44.921Z,85.18
2018-08-12T05:29:44.807Z,84.89
2018-08-12T05:30:44.938Z,84.89
2018-08-12T05:31:44.762Z,83.94
2018-08-12T05:32:44.851Z,83.46
2018-08-12T05:33:44.713Z,83.56
2018-08-12T05:34:44.856Z,82.79
2018-08-12T05:35:44.670Z,81.88
2018-08-12T05:36:44.775Z,82.26
2018-08-12T05:37:44.619Z,81.97
2018-08-12T05:38:44.790Z,82.35
2018-08-12T05:39:44.570Z,82.64
2018-08-12T05:40:44.701Z,82.35
2018-08-12T05:41:44.526Z,82.07
2018-08-12T05:42:44.613Z,82.54
2018-08-12T05:43:44.476Z,82.64
2018-08-12T05:44:44.628Z,82.45
2018-08-12T05:45:44.433Z,81.88
2018-08-12T05:46:44.555Z,82.35
2018-08-12T05:47:44.391Z,82.74
2018-08-12T05:48:44.555Z,82.45
2018-08-12T05:49:44.338Z,82.83
2018-08-12T05:50:44.468Z,82.83
2018-08-12T05:51:44.296Z,81.78
2018-08-12T05:52:44.381Z,81.40
2018-08-12T05:53:44.254Z,80.77
2018-08-12T05:54:44.394Z,80.82
2018-08-12T05:55:44.198Z,80.29
2018-08-12T05:56:44.306Z,80.96
2018-08-12T05:57:44.154Z,80.19
2018-08-12T05:58:44.322Z,80.77
2018-08-12T05:59:44.106Z,80.67
2018-08-12T06:00:44.231Z,80.67
2018-08-12T06:01:44.107Z,80.67
2018-08-12T06:02:44.323Z,80.58
2018-08-12T06:03:44.014Z,81.05
2018-08-12T06:04:44.159Z,81.25
2018-08-12T06:05:43.965Z,80.48
2018-08-12T06:06:44.071Z,81.05
2018-08-12T06:07:43.917Z,81.25
2018-08-12T06:08:44.140Z,80.58
2018-08-12T06:09:43.875Z,80.58
2018-08-12T06:10:43.996Z,80.10
2018-08-12T06:11:43.826Z,79.75
2018-08-12T06:12:44.010Z,79.66
2018-08-12T06:13:43.782Z,79.28
2018-08-12T06:14:43.922Z,79.47
2018-08-12T06:15:43.732Z,79.08
2018-08-12T06:16:43.835Z,79.75
2018-08-12T06:17:43.726Z,80.62
2018-08-12T06:18:43.745Z,80.71
2018-08-12T06:19:43.671Z,79.37
2018-08-12T06:20:43.656Z,79.08
2018-08-12T06:21:43.644Z,78.70
2018-08-12T06:22:43.686Z,79.13
2018-08-12T06:23:43.551Z,79.22
2018-08-12T06:24:43.580Z,77.69
2018-08-12T06:25:43.526Z,77.97
2018-08-12T06:26:43.595Z,77.40
2018-08-12T06:27:43.474Z,76.82
2018-08-12T06:28:43.505Z,76.44
2018-08-12T06:29:43.415Z,76.54
2018-08-12T06:30:43.520Z,76.06
2018-08-12T06:31:43.366Z,76.92
2018-08-12T06:32:43.433Z,76.73
2018-08-12T06:33:43.324Z,76.92
2018-08-12T06:34:43.344Z,77.59
2018-08-12T06:35:43.277Z,77.88
2018-08-12T06:36:43.358Z,77.88
2018-08-12T06:37:43.229Z,76.82
2018-08-12T06:38:43.272Z,76.44
2018-08-12T06:39:43.229Z,75.96
2018-08-12T06:40:43.332Z,75.58
2018-08-12T06:41:43.137Z,76.54
2018-08-12T06:42:43.197Z,75.77
2018-08-12T06:43:43.094Z,75.33
2018-08-12T06:44:43.209Z,75.58
2018-08-12T06:45:43.047Z,75.62
2018-08-12T06:46:43.150Z,75.58
2018-08-12T06:47:43.002Z,75.68
2018-08-12T06:48:43.034Z,74.72
2018-08-12T06:49:42.961Z,74.37
2018-08-12T06:50:43.050Z,75.43
2018-08-12T06:51:42.995Z,75.52
2018-08-12T06:52:42.960Z,75.81
2018-08-12T06:53:42.869Z,76.67
2018-08-12T06:54:42.974Z,75.52
2018-08-12T06:55:42.816Z,75.23
2018-08-12T06:56:42.893Z,75.43
2018-08-12T06:57:42.775Z,74.47
2018-08-12T06:58:42.900Z,75.23
2018-08-12T06:59:42.728Z,74.76
2018-08-12T07:00:42.811Z,75.14
2018-08-12T07:01:42.685Z,74.66
2018-08-12T07:02:42.726Z,74.89
2018-08-12T07:03:42.641Z,74.89
2018-08-12T07:04:42.738Z,74.31
2018-08-12T07:05:42.595Z,75.08
2018-08-12T07:06:42.709Z,73.74
2018-08-12T07:07:42.554Z,73.16
2018-08-12T07:08:42.664Z,73.45
2018-08-12T07:09:42.502Z,73.16
2018-08-12T07:10:42.575Z,73.07
2018-08-12T07:11:42.459Z,73.68
2018-08-12T07:12:42.589Z,73.30
2018-08-12T07:13:42.414Z,73.68
2018-08-12T07:14:42.497Z,73.00
2018-08-12T07:15:42.366Z,73.10
2018-08-12T07:16:42.513Z,72.63
2018-08-12T07:17:42.326Z,73.10
2018-08-12T07:18:42.431Z,73.30
2018-08-12T07:19:42.282Z,72.33
2018-08-12T07:20:42.340Z,72.33
2018-08-12T07:21:42.239Z,71.22
2018-08-12T07:22:42.356Z,71.61
2018-08-12T07:23:42.189Z,72.18
2018-08-12T07:24:42.291Z,72.56
2018-08-12T07:25:42.150Z,71.41
2018-08-12T07:26:42.288Z,70.84
2018-08-12T07:27:42.101Z,71.31
2018-08-12T07:28:42.195Z,70.84
2018-08-12T07:29:42.056Z,71.41
2018-08-12T07:30:42.213Z,71.55
2018-08-12T07:31:42.014Z,70.20
2018-08-12T07:32:42.131Z,70.20
2018-08-12T07:33:41.968Z,70.29
2018-08-12T07:34:42.134Z,70.20
2018-08-12T07:35:41.921Z,70.39
2018-08-12T07:36:42.048Z,69.72
2018-08-12T07:37:41.891Z,69.05
2018-08-12T07:38:42.018Z,70.49
2018-08-12T07:39:41.837Z,69.53
2018-08-12T07:40:41.872Z,69.24
2018-08-12T07:41:41.794Z,69.34
2018-08-12T07:42:41.883Z,69.72
2018-08-12T07:43:41.752Z,70.01
2018-08-12T07:44:41.897Z,70.20
2018-08-12T07:45:41.707Z,69.66
2018-08-12T07:46:41.707Z,69.37
2018-08-12T07:47:41.666Z,69.18
2018-08-12T07:48:42.376Z,69.56
2018-08-12T07:49:41.622Z,70.04
2018-08-12T07:50:41.634Z,71.10
2018-08-12T07:51:41.575Z,71.00
2018-08-12T07:52:41.750Z,70.90
2018-08-12T07:53:41.526Z,71.00
2018-08-12T07:54:41.669Z,71.04
2018-08-12T07:55:41.608Z,71.04
2018-08-12T07:56:41.679Z,70.94
2018-08-12T07:57:41.444Z,71.42
2018-08-12T07:58:41.586Z,70.17
2018-08-12T07:59:41.404Z,69.12
2018-08-12T08:00:41.515Z,69.02
2018-08-12T08:01:41.358Z,68.83
2018-08-12T08:02:41.521Z,67.90
2018-08-12T08:03:41.320Z,67.51
2018-08-12T08:04:41.432Z,67.90
2018-08-12T08:05:41.272Z,68.76
2018-08-12T08:06:41.450Z,68.96
2018-08-12T08:07:41.233Z,68.96
2018-08-12T08:08:41.353Z,66.36
2018-08-12T08:09:41.194Z,66.07
2018-08-12T08:10:41.268Z,67.16
2018-08-12T08:11:41.147Z,65.72
2018-08-12T08:12:41.295Z,64.56
2018-08-12T08:13:41.102Z,63.70
2018-08-12T08:14:41.191Z,64.02
2018-08-12T08:15:41.061Z,62.00
2018-08-12T08:16:41.105Z,61.13
2018-08-12T08:17:41.020Z,60.65
2018-08-12T08:18:41.119Z,60.17
2018-08-12T08:19:41.042Z,59.81
2018-08-12T08:20:41.029Z,59.14
2018-08-12T08:21:40.938Z,57.89
2018-08-12T08:22:41.046Z,59.14
2018-08-12T08:23:40.887Z,57.79
2018-08-12T08:24:40.955Z,58.08
2018-08-12T08:25:40.892Z,57.21
2018-08-12T08:26:40.865Z,59.52
2018-08-12T08:27:40.811Z,59.07
2018-08-12T08:28:40.889Z,58.88
2018-08-12T08:29:40.771Z,59.07
2018-08-12T08:30:40.812Z,58.11
2018-08-12T08:31:40.927Z,59.07
2018-08-12T08:32:40.809Z,59.39
2018-08-12T08:33:40.694Z,56.01
2018-08-12T08:34:40.717Z,57.56
2018-08-12T08:35:40.650Z,58.04
2018-08-12T08:36:40.734Z,58.52
2018-08-12T08:37:40.607Z,55.82
2018-08-12T08:38:40.614Z,56.69
2018-08-12T08:39:40.563Z,55.44
2018-08-12T08:40:40.635Z,56.59
2018-08-12T08:41:40.528Z,57.10
2018-08-12T08:42:40.575Z,54.88
2018-08-12T08:43:40.484Z,56.81
2018-08-12T08:44:40.488Z,56.81
2018-08-12T08:45:40.445Z,56.81
2018-08-12T08:46:40.500Z,56.33
2018-08-12T08:47:40.405Z,55.49
2018-08-12T08:48:40.389Z,54.91
2018-08-12T08:49:40.353Z,54.82
2018-08-12T08:50:40.425Z,55.30
2018-08-12T08:51:40.343Z,55.49
2018-08-12T08:52:40.333Z,53.85
2018-08-12T08:53:40.281Z,55.01
2018-08-12T08:54:40.346Z,54.65
2018-08-12T08:55:40.267Z,53.97
2018-08-12T08:56:40.263Z,56.00
2018-08-12T08:57:40.208Z,54.84
2018-08-12T08:58:40.275Z,53.52
2018-08-12T08:59:40.161Z,53.33
2018-08-12T09:00:40.187Z,53.13
2018-08-12T09:01:40.120Z,53.61
2018-08-12T09:02:40.203Z,52.58
2018-08-12T09:03:40.081Z,53.55
2018-08-12T09:04:40.120Z,52.00
2018-08-12T09:05:40.105Z,54.61
2018-08-12T09:06:40.208Z,54.05
2018-08-12T09:07:40.004Z,51.61
2018-08-12T09:08:41.288Z,51.64
2018-08-12T09:09:39.966Z,50.86
2018-08-12T09:10:40.052Z,49.99
2018-08-12T09:11:39.925Z,51.83
2018-08-12T09:12:39.963Z,53.38
2018-08-12T09:13:39.888Z,53.41
2018-08-12T09:14:39.984Z,52.82
2018-08-12T09:15:39.848Z,51.01
2018-08-12T09:16:39.891Z,49.95
2018-08-12T09:17:39.814Z,52.08
2018-08-12T09:18:39.906Z,50.43
2018-08-12T09:19:39.773Z,50.82
2018-08-12T09:20:39.841Z,50.84
2018-08-12T09:21:39.731Z,50.77
2018-08-12T09:22:39.726Z,50.19
2018-08-12T09:23:39.698Z,49.22
2018-08-12T09:24:39.752Z,50.09
2018-08-12T09:25:39.665Z,48.93
2018-08-12T09:26:39.655Z,48.93
2018-08-12T09:27:39.624Z,49.32
2018-08-12T09:28:39.673Z,47.67
2018-08-12T09:29:39.589Z,48.13
2018-08-12T09:30:39.579Z,48.13
2018-08-12T09:31:39.549Z,50.09
2018-08-12T09:32:39.595Z,49.41
2018-08-12T09:33:39.514Z,50.19
2018-08-12T09:34:39.506Z,49.82
2018-08-12T09:35:39.479Z,49.05
2018-08-12T09:36:39.520Z,49.34
2018-08-12T09:37:39.438Z,47.96
2018-08-12T09:38:39.430Z,50.99
2018-08-12T09:39:39.404Z,50.21
2018-08-12T09:40:39.449Z,49.07
2018-08-12T09:41:39.363Z,46.72
2018-08-12T09:42:39.460Z,47.79
2018-08-12T09:43:39.330Z,49.75
2018-08-12T09:44:39.371Z,48.03
2018-08-12T09:45:39.290Z,47.16
2018-08-12T09:46:39.386Z,48.44
2018-08-12T09:47:39.263Z,46.91
2018-08-12T09:48:39.294Z,48.10
2018-08-12T09:49:39.222Z,46.55
2018-08-12T09:50:39.313Z,45.28
2018-08-12T09:51:39.267Z,46.33
2018-08-12T09:52:39.328Z,46.14
2018-08-12T09:53:39.173Z,48.27
2018-08-12T09:54:39.341Z,47.91
2018-08-12T09:55:39.119Z,46.35
2018-08-12T09:56:39.127Z,44.70
2018-08-12T09:57:39.091Z,45.87
2018-08-12T09:58:39.266Z,44.79
2018-08-12T09:59:39.051Z,44.82
2018-08-12T10:00:39.181Z,45.01
2018-08-12T10:01:39.015Z,45.32
2018-08-12T10:02:39.191Z,44.76
2018-08-12T10:03:38.985Z,45.06
2018-08-12T10:04:39.103Z,43.99
2018-08-12T10:05:38.947Z,44.76
2018-08-12T10:06:39.117Z,43.70
2018-08-12T10:07:38.914Z,43.79
2018-08-12T10:08:38.928Z,42.82
2018-08-12T10:09:38.882Z,42.63
2018-08-12T10:10:38.942Z,43.40
2018-08-12T10:11:38.860Z,43.79
2018-08-12T10:12:38.854Z,44.69
2018-08-12T10:13:38.818Z,42.96
2018-08-12T10:14:38.874Z,42.38
2018-08-12T10:15:38.851Z,42.18
2018-08-12T10:16:38.888Z,42.08
2018-08-12T10:17:38.751Z,41.11
2018-08-12T10:18:38.794Z,42.40
2018-08-12T10:19:38.720Z,41.42
2018-08-12T10:20:38.909Z,39.96
2018-08-12T10:21:38.714Z,42.08
2018-08-12T10:22:38.728Z,41.40
2018-08-12T10:23:38.656Z,40.01
2018-08-12T10:24:38.738Z,40.58
2018-08-12T10:25:38.628Z,42.74
2018-08-12T10:26:38.775Z,43.13
2018-08-12T10:27:38.595Z,41.65
2018-08-12T10:28:38.660Z,41.57
2018-08-12T10:29:38.568Z,41.06
2018-08-12T10:30:38.704Z,43.79
2018-08-12T10:31:38.537Z,41.55
2018-08-12T10:32:38.590Z,42.04
2018-08-12T10:33:38.508Z,42.82
2018-08-12T10:34:38.606Z,42.33
2018-08-12T10:35:38.470Z,42.14
2018-08-12T10:36:38.512Z,42.65
2018-08-12T10:37:38.442Z,39.90
2018-08-12T10:38:38.530Z,42.84
2018-08-12T10:39:38.410Z,42.25
2018-08-12T10:40:38.440Z,43.15
2018-08-12T10:41:38.381Z,42.38
2018-08-12T10:42:38.455Z,42.18
2018-08-12T10:43:38.350Z,42.49
2018-08-12T10:44:38.467Z,42.02
2018-08-12T10:45:38.329Z,40.95
2018-08-12T10:46:38.383Z,39.78
2018-08-12T10:47:38.282Z,38.90
2018-08-12T10:48:38.392Z,40.76
2018-08-12T10:49:38.264Z,38.79
2018-08-12T10:50:38.304Z,39.65
2018-08-12T10:51:38.232Z,40.52
2018-08-12T10:52:38.324Z,40.62
2018-08-12T10:53:38.200Z,40.13
2018-08-12T10:54:38.380Z,40.13
2018-08-12T10:55:38.170Z,42.40
2018-08-12T10:56:38.245Z,39.78
2018-08-12T10:57:38.146Z,38.34
2018-08-12T10:58:38.261Z,38.73
2018-08-12T10:59:38.115Z,39.31
2018-08-12T11:00:38.170Z,38.34
2018-08-12T11:01:38.084Z,39.80
2018-08-12T11:02:38.081Z,40.19
2018-08-12T11:03:38.053Z,39.70
2018-08-12T11:04:38.201Z,39.41
2018-08-12T11:05:38.027Z,40.08
2018-08-12T11:06:38.108Z,40.00
2018-08-12T11:07:37.997Z,39.31
2018-08-12T11:08:37.990Z,39.10
2018-08-12T11:09:38.129Z,38.98
2018-08-12T11:10:37.955Z,40.55
2018-08-12T11:11:38.044Z,39.08
2018-08-12T11:12:37.956Z,41.13
2018-08-12T11:13:38.060Z,40.45
2018-08-12T11:14:37.902Z,39.28
2018-08-12T11:15:37.968Z,39.18
2018-08-12T11:16:37.868Z,40.03
2018-08-12T11:17:38.031Z,40.64
2018-08-12T11:18:37.846Z,41.03
2018-08-12T11:19:37.995Z,39.10
2018-08-12T11:20:37.860Z,39.22
2018-08-12T11:21:37.913Z,40.80
2018-08-12T11:22:37.816Z,38.87
2018-08-12T11:23:37.926Z,37.30
2018-08-12T11:24:37.767Z,37.57
2018-08-12T11:25:37.844Z,39.94
2018-08-12T11:26:37.746Z,39.18
2018-08-12T11:27:37.853Z,40.17
2018-08-12T11:28:37.760Z,40.48
2018-08-12T11:29:37.865Z,40.01
2018-08-12T11:30:37.772Z,36.71
2018-08-12T11:31:37.660Z,38.37
2018-08-12T11:32:37.785Z,34.91
2018-08-12T11:33:37.644Z,36.55
2018-08-12T11:34:37.806Z,36.26
2018-08-12T11:35:37.608Z,38.63
2018-08-12T11:36:37.593Z,37.67
2018-08-12T11:37:37.736Z,35.91
2018-08-12T11:38:37.572Z,36.32
2018-08-12T11:39:37.737Z,34.36
2018-08-12T11:40:37.541Z,34.06
2018-08-12T11:41:37.644Z,33.85
2018-08-12T11:42:37.517Z,34.21
2018-08-12T11:43:37.658Z,35.02
2018-08-12T11:44:37.518Z,36.88
2018-08-12T11:45:37.674Z,37.27
2018-08-12T11:46:37.463Z,38.65
2018-08-12T11:47:37.656Z,37.40
2018-08-12T11:48:37.440Z,38.89
2018-08-12T11:49:37.601Z,36.07
2018-08-12T11:50:37.423Z,35.17
2018-08-12T11:51:37.524Z,35.25
2018-08-12T11:52:37.395Z,35.14
2018-08-12T11:53:37.423Z,37.09
2018-08-12T11:54:37.370Z,37.17
2018-08-12T11:55:37.439Z,35.80
2018-08-12T11:56:37.340Z,39.14
2018-08-12T11:57:37.348Z,40.14
2018-08-12T11:58:37.315Z,36.54
2018-08-12T11:59:37.365Z,35.95
2018-08-12T12:00:37.293Z,38.69
2018-08-12T12:01:37.379Z,35.87
2018-08-12T12:02:37.265Z,35.77
2018-08-12T12:03:37.300Z,35.77
2018-08-12T12:04:37.238Z,36.16
2018-08-12T12:05:37.305Z,35.19
2018-08-12T12:06:37.212Z,35.77
2018-08-12T12:07:37.217Z,35.07
2018-08-12T12:08:37.189Z,34.67
2018-08-12T12:09:37.229Z,35.64
2018-08-12T12:10:37.175Z,34.73
2018-08-12T12:11:37.252Z,36.78
2018-08-12T12:12:37.141Z,36.31
2018-08-12T12:13:37.159Z,35.33
2018-08-12T12:14:37.113Z,36.49
2018-08-12T12:15:37.168Z,36.29
2018-08-12T12:16:37.091Z,38.14
2018-08-12T12:17:37.231Z,37.57
2018-08-12T12:18:37.063Z,37.60
2018-08-12T12:19:37.145Z,37.12
2018-08-12T12:20:37.122Z,36.44
2018-08-12T12:21:37.112Z,35.28
2018-08-12T12:22:37.031Z,37.06
2018-08-12T12:23:37.021Z,34.34
2018-08-12T12:24:36.987Z,33.17
2018-08-12T12:25:37.038Z,35.13
2018-08-12T12:26:36.969Z,34.74
2018-08-12T12:27:37.052Z,34.55
2018-08-12T12:28:36.932Z,32.60
2018-08-12T12:29:36.926Z,35.16
2018-08-12T12:30:36.970Z,34.08
2018-08-12T12:31:36.904Z,32.32
2018-08-12T12:32:36.985Z,32.70
2018-08-12T12:33:36.880Z,33.77
2018-08-12T12:34:36.999Z,33.28
2018-08-12T12:35:36.906Z,32.29
2018-08-12T12:36:36.909Z,33.25
2018-08-12T12:37:36.830Z,33.53
2018-08-12T12:38:36.933Z,33.70
2018-08-12T12:39:36.804Z,34.50
2018-08-12T12:40:36.939Z,33.92
2018-08-12T12:41:36.782Z,33.41
2018-08-12T12:42:36.850Z,35.68
2018-08-12T12:43:36.771Z,34.01
2018-08-12T12:44:36.865Z,34.09
2018-08-12T12:45:36.740Z,33.90
2018-08-12T12:46:36.780Z,35.48
2018-08-12T12:47:36.713Z,34.99
2018-08-12T12:48:36.793Z,35.21
2018-08-12T12:49:36.773Z,34.60
2018-08-12T12:50:36.694Z,34.29
2018-08-12T12:51:36.816Z,34.09
2018-08-12T12:52:36.651Z,34.19